sensor_id;sensor_type;location;lat;lon;timestamp;P1;durP1;ratioP1;P2;durP2;ratioP2
7783;SDS011;19359;51.402;6.778;2022-08-01T00:01:31;6.93;;;5.40;;
7783;SDS011;19359;51.402;6.778;2022-08-01T00:03:58;6.53;;;4.97;;
7783;SDS011;19359;51.402;6.778;2022-08-01T00:06:26;7.22;;;5.13;;
7783;SDS011;19359;51.402;6.778;2022-08-01T00:08:53;8.27;;;5.50;;
7783;SDS011;19359;51.402;6.778;2022-08-01T00:11:19;6.65;;;5.75;;
7783;SDS011;19359;51.402;6.778;2022-08-01T00:13:47;5.95;;;5.43;;
7783;SDS011;19359;51.402;6.778;2022-08-01T00:16:14;5.95;;;5.45;;
7783;SDS011;19359;51.402;6.778;2022-08-01T00:18:41;6.10;;;5.50;;
7783;SDS011;19359;51.402;6.778;2022-08-01T00:21:08;6.20;;;5.70;;
7783;SDS011;19359;51.402;6.778;2022-08-01T00:23:36;6.28;;;5.75;;
7783;SDS011;19359;51.402;6.778;2022-08-01T00:26:03;6.53;;;6.03;;
7783;SDS011;19359;51.402;6.778;2022-08-01T00:28:30;8.32;;;5.55;;
7783;SDS011;19359;51.402;6.778;2022-08-01T00:30:57;5.70;;;5.20;;
7783;SDS011;19359;51.402;6.778;2022-08-01T00:33:23;7.90;;;6.28;;
7783;SDS011;19359;51.402;6.778;2022-08-01T00:35:50;6.47;;;5.57;;
7783;SDS011;19359;51.402;6.778;2022-08-01T00:38:17;10.85;;;6.35;;
7783;SDS011;19359;51.402;6.778;2022-08-01T00:40:45;6.38;;;5.70;;
7783;SDS011;19359;51.402;6.778;2022-08-01T00:43:12;10.13;;;5.85;;
7783;SDS011;19359;51.402;6.778;2022-08-01T00:45:39;9.23;;;6.15;;
7783;SDS011;19359;51.402;6.778;2022-08-01T00:48:06;6.35;;;5.82;;
7783;SDS011;19359;51.402;6.778;2022-08-01T00:50:33;7.05;;;5.65;;
7783;SDS011;19359;51.402;6.778;2022-08-01T00:53:01;8.52;;;6.28;;
7783;SDS011;19359;51.402;6.778;2022-08-01T00:55:28;8.32;;;5.78;;
7783;SDS011;19359;51.402;6.778;2022-08-01T00:57:58;7.50;;;6.80;;
7783;SDS011;19359;51.402;6.778;2022-08-01T01:00:26;7.25;;;6.20;;
7783;SDS011;19359;51.402;6.778;2022-08-01T01:02:53;7.68;;;6.43;;
7783;SDS011;19359;51.402;6.778;2022-08-01T01:05:19;6.43;;;5.78;;
7783;SDS011;19359;51.402;6.778;2022-08-01T01:07:48;9.40;;;6.30;;
7783;SDS011;19359;51.402;6.778;2022-08-01T01:10:21;13.27;;;6.55;;
7783;SDS011;19359;51.402;6.778;2022-08-01T01:12:53;7.38;;;6.68;;
7783;SDS011;19359;51.402;6.778;2022-08-01T01:15:26;10.02;;;6.05;;
7783;SDS011;19359;51.402;6.778;2022-08-01T01:17:57;10.50;;;7.50;;
7783;SDS011;19359;51.402;6.778;2022-08-01T01:20:29;6.85;;;5.50;;
7783;SDS011;19359;51.402;6.778;2022-08-01T01:23:05;9.07;;;6.95;;
7783;SDS011;19359;51.402;6.778;2022-08-01T01:25:40;9.20;;;6.45;;
7783;SDS011;19359;51.402;6.778;2022-08-01T01:28:17;17.02;;;9.02;;
7783;SDS011;19359;51.402;6.778;2022-08-01T01:30:53;7.95;;;6.75;;
7783;SDS011;19359;51.402;6.778;2022-08-01T01:33:23;13.38;;;7.20;;
7783;SDS011;19359;51.402;6.778;2022-08-01T01:35:55;8.32;;;7.45;;
7783;SDS011;19359;51.402;6.778;2022-08-01T01:38:26;7.88;;;7.15;;
7783;SDS011;19359;51.402;6.778;2022-08-01T01:40:55;9.07;;;7.60;;
7783;SDS011;19359;51.402;6.778;2022-08-01T01:43:23;10.52;;;7.57;;
7783;SDS011;19359;51.402;6.778;2022-08-01T01:45:53;10.02;;;7.57;;
7783;SDS011;19359;51.402;6.778;2022-08-01T01:48:22;11.43;;;7.45;;
7783;SDS011;19359;51.402;6.778;2022-08-01T01:50:51;16.88;;;7.38;;
7783;SDS011;19359;51.402;6.778;2022-08-01T01:53:20;16.33;;;9.10;;
7783;SDS011;19359;51.402;6.778;2022-08-01T01:55:50;11.00;;;8.02;;
7783;SDS011;19359;51.402;6.778;2022-08-01T01:58:19;9.45;;;7.90;;
7783;SDS011;19359;51.402;6.778;2022-08-01T02:00:48;13.10;;;8.38;;
7783;SDS011;19359;51.402;6.778;2022-08-01T02:03:19;9.88;;;8.50;;
7783;SDS011;19359;51.402;6.778;2022-08-01T02:05:48;8.48;;;7.68;;
7783;SDS011;19359;51.402;6.778;2022-08-01T02:08:17;9.93;;;8.52;;
7783;SDS011;19359;51.402;6.778;2022-08-01T02:10:44;16.42;;;7.95;;
7783;SDS011;19359;51.402;6.778;2022-08-01T02:13:32;13.02;;;8.80;;
7783;SDS011;19359;51.402;6.778;2022-08-01T02:16:00;12.30;;;8.20;;
7783;SDS011;19359;51.402;6.778;2022-08-01T02:18:30;13.52;;;8.90;;
7783;SDS011;19359;51.402;6.778;2022-08-01T02:20:57;12.27;;;9.18;;
7783;SDS011;19359;51.402;6.778;2022-08-01T02:23:27;12.55;;;8.88;;
7783;SDS011;19359;51.402;6.778;2022-08-01T02:25:57;13.63;;;8.48;;
7783;SDS011;19359;51.402;6.778;2022-08-01T02:28:29;11.02;;;9.05;;
7783;SDS011;19359;51.402;6.778;2022-08-01T02:31:01;13.50;;;8.88;;
7783;SDS011;19359;51.402;6.778;2022-08-01T02:33:33;15.05;;;9.40;;
7783;SDS011;19359;51.402;6.778;2022-08-01T02:36:04;11.30;;;8.65;;
7783;SDS011;19359;51.402;6.778;2022-08-01T02:38:32;16.35;;;9.38;;
7783;SDS011;19359;51.402;6.778;2022-08-01T02:41:04;13.85;;;8.73;;
7783;SDS011;19359;51.402;6.778;2022-08-01T02:43:34;18.15;;;9.95;;
7783;SDS011;19359;51.402;6.778;2022-08-01T02:46:04;16.90;;;10.15;;
7783;SDS011;19359;51.402;6.778;2022-08-01T02:48:36;13.30;;;8.80;;
7783;SDS011;19359;51.402;6.778;2022-08-01T02:51:05;19.20;;;9.95;;
7783;SDS011;19359;51.402;6.778;2022-08-01T02:53:34;16.65;;;9.57;;
7783;SDS011;19359;51.402;6.778;2022-08-01T02:56:03;14.73;;;10.00;;
7783;SDS011;19359;51.402;6.778;2022-08-01T02:58:32;17.92;;;9.70;;
7783;SDS011;19359;51.402;6.778;2022-08-01T03:01:01;15.80;;;10.52;;
7783;SDS011;19359;51.402;6.778;2022-08-01T03:03:29;16.88;;;10.98;;
7783;SDS011;19359;51.402;6.778;2022-08-01T03:05:58;15.27;;;10.13;;
7783;SDS011;19359;51.402;6.778;2022-08-01T03:08:27;14.52;;;10.20;;
7783;SDS011;19359;51.402;6.778;2022-08-01T03:10:56;18.92;;;11.10;;
7783;SDS011;19359;51.402;6.778;2022-08-01T03:13:25;13.82;;;11.25;;
7783;SDS011;19359;51.402;6.778;2022-08-01T03:15:53;20.58;;;11.95;;
7783;SDS011;19359;51.402;6.778;2022-08-01T03:18:21;20.20;;;12.60;;
7783;SDS011;19359;51.402;6.778;2022-08-01T03:20:50;19.42;;;12.20;;
7783;SDS011;19359;51.402;6.778;2022-08-01T03:23:21;19.33;;;12.35;;
7783;SDS011;19359;51.402;6.778;2022-08-01T03:25:49;20.33;;;12.77;;
7783;SDS011;19359;51.402;6.778;2022-08-01T03:28:17;22.77;;;13.55;;
7783;SDS011;19359;51.402;6.778;2022-08-01T03:30:47;29.83;;;14.07;;
7783;SDS011;19359;51.402;6.778;2022-08-01T03:33:14;20.13;;;12.77;;
7783;SDS011;19359;51.402;6.778;2022-08-01T03:35:42;24.50;;;13.70;;
7783;SDS011;19359;51.402;6.778;2022-08-01T03:38:13;25.20;;;14.20;;
7783;SDS011;19359;51.402;6.778;2022-08-01T03:40:47;19.45;;;13.52;;
7783;SDS011;19359;51.402;6.778;2022-08-01T03:43:19;18.73;;;12.75;;
7783;SDS011;19359;51.402;6.778;2022-08-01T03:45:50;27.65;;;13.25;;
7783;SDS011;19359;51.402;6.778;2022-08-01T03:48:19;22.38;;;13.63;;
7783;SDS011;19359;51.402;6.778;2022-08-01T03:50:50;23.15;;;11.93;;
7783;SDS011;19359;51.402;6.778;2022-08-01T03:53:18;20.80;;;13.30;;
7783;SDS011;19359;51.402;6.778;2022-08-01T03:55:49;25.77;;;12.90;;
7783;SDS011;19359;51.402;6.778;2022-08-01T03:58:18;22.65;;;12.27;;
7783;SDS011;19359;51.402;6.778;2022-08-01T04:00:46;15.38;;;12.00;;
7783;SDS011;19359;51.402;6.778;2022-08-01T04:03:14;20.85;;;12.15;;
7783;SDS011;19359;51.402;6.778;2022-08-01T04:05:41;18.02;;;12.07;;
7783;SDS011;19359;51.402;6.778;2022-08-01T04:08:08;26.70;;;13.80;;
7783;SDS011;19359;51.402;6.778;2022-08-01T04:10:35;19.60;;;13.60;;
7783;SDS011;19359;51.402;6.778;2022-08-01T04:13:04;22.60;;;11.90;;
7783;SDS011;19359;51.402;6.778;2022-08-01T04:15:31;18.73;;;13.23;;
7783;SDS011;19359;51.402;6.778;2022-08-01T04:17:58;16.10;;;12.30;;
7783;SDS011;19359;51.402;6.778;2022-08-01T04:20:25;18.63;;;12.10;;
7783;SDS011;19359;51.402;6.778;2022-08-01T04:22:52;15.57;;;12.73;;
7783;SDS011;19359;51.402;6.778;2022-08-01T04:25:19;18.50;;;12.13;;
7783;SDS011;19359;51.402;6.778;2022-08-01T04:27:49;25.88;;;12.85;;
7783;SDS011;19359;51.402;6.778;2022-08-01T04:30:20;16.27;;;12.80;;
7783;SDS011;19359;51.402;6.778;2022-08-01T04:32:49;18.92;;;12.82;;
7783;SDS011;19359;51.402;6.778;2022-08-01T04:35:19;13.90;;;12.40;;
7783;SDS011;19359;51.402;6.778;2022-08-01T04:37:47;17.75;;;12.65;;
7783;SDS011;19359;51.402;6.778;2022-08-01T04:40:16;15.68;;;12.00;;
7783;SDS011;19359;51.402;6.778;2022-08-01T04:42:45;14.80;;;12.35;;
7783;SDS011;19359;51.402;6.778;2022-08-01T04:45:14;15.70;;;10.98;;
7783;SDS011;19359;51.402;6.778;2022-08-01T04:47:43;16.20;;;12.38;;
7783;SDS011;19359;51.402;6.778;2022-08-01T04:50:12;20.58;;;12.63;;
7783;SDS011;19359;51.402;6.778;2022-08-01T04:52:39;17.63;;;12.52;;
7783;SDS011;19359;51.402;6.778;2022-08-01T04:55:07;14.13;;;11.68;;
7783;SDS011;19359;51.402;6.778;2022-08-01T04:57:36;18.40;;;11.50;;
7783;SDS011;19359;51.402;6.778;2022-08-01T05:00:04;17.75;;;11.52;;
7783;SDS011;19359;51.402;6.778;2022-08-01T05:02:32;20.65;;;11.35;;
7783;SDS011;19359;51.402;6.778;2022-08-01T05:05:00;19.85;;;12.07;;
7783;SDS011;19359;51.402;6.778;2022-08-01T05:07:27;14.52;;;12.57;;
7783;SDS011;19359;51.402;6.778;2022-08-01T05:09:53;18.58;;;11.25;;
7783;SDS011;19359;51.402;6.778;2022-08-01T05:12:20;18.00;;;11.65;;
7783;SDS011;19359;51.402;6.778;2022-08-01T05:14:47;16.70;;;12.88;;
7783;SDS011;19359;51.402;6.778;2022-08-01T05:17:14;14.40;;;11.95;;
7783;SDS011;19359;51.402;6.778;2022-08-01T05:19:41;16.48;;;10.93;;
7783;SDS011;19359;51.402;6.778;2022-08-01T05:22:10;21.00;;;11.60;;
7783;SDS011;19359;51.402;6.778;2022-08-01T05:24:38;14.05;;;11.00;;
7783;SDS011;19359;51.402;6.778;2022-08-01T05:27:05;21.30;;;11.73;;
7783;SDS011;19359;51.402;6.778;2022-08-01T05:29:33;17.35;;;11.93;;
7783;SDS011;19359;51.402;6.778;2022-08-01T05:32:00;18.45;;;12.10;;
7783;SDS011;19359;51.402;6.778;2022-08-01T05:34:27;17.65;;;11.75;;
7783;SDS011;19359;51.402;6.778;2022-08-01T05:36:54;13.00;;;11.13;;
7783;SDS011;19359;51.402;6.778;2022-08-01T05:39:22;15.95;;;11.23;;
7783;SDS011;19359;51.402;6.778;2022-08-01T05:41:49;14.77;;;10.43;;
7783;SDS011;19359;51.402;6.778;2022-08-01T05:44:15;15.50;;;10.60;;
7783;SDS011;19359;51.402;6.778;2022-08-01T05:46:42;20.80;;;10.25;;
7783;SDS011;19359;51.402;6.778;2022-08-01T05:49:09;14.35;;;10.18;;
7783;SDS011;19359;51.402;6.778;2022-08-01T05:51:36;12.80;;;9.75;;
7783;SDS011;19359;51.402;6.778;2022-08-01T05:54:02;18.27;;;10.13;;
7783;SDS011;19359;51.402;6.778;2022-08-01T05:56:32;11.88;;;9.48;;
7783;SDS011;19359;51.402;6.778;2022-08-01T05:58:58;12.32;;;9.27;;
7783;SDS011;19359;51.402;6.778;2022-08-01T06:01:25;13.43;;;9.55;;
7783;SDS011;19359;51.402;6.778;2022-08-01T06:03:52;10.65;;;9.48;;
7783;SDS011;19359;51.402;6.778;2022-08-01T06:06:19;13.27;;;10.27;;
7783;SDS011;19359;51.402;6.778;2022-08-01T06:08:46;14.18;;;9.90;;
7783;SDS011;19359;51.402;6.778;2022-08-01T06:11:13;10.75;;;9.65;;
7783;SDS011;19359;51.402;6.778;2022-08-01T06:13:41;11.95;;;9.18;;
7783;SDS011;19359;51.402;6.778;2022-08-01T06:16:08;11.18;;;8.82;;
7783;SDS011;19359;51.402;6.778;2022-08-01T06:18:35;9.68;;;8.63;;
7783;SDS011;19359;51.402;6.778;2022-08-01T06:21:01;8.18;;;7.15;;
7783;SDS011;19359;51.402;6.778;2022-08-01T06:23:28;9.25;;;8.15;;
7783;SDS011;19359;51.402;6.778;2022-08-01T06:25:55;7.65;;;6.88;;
7783;SDS011;19359;51.402;6.778;2022-08-01T06:28:23;10.65;;;6.93;;
7783;SDS011;19359;51.402;6.778;2022-08-01T06:30:51;10.48;;;6.88;;
7783;SDS011;19359;51.402;6.778;2022-08-01T06:33:18;8.38;;;6.97;;
7783;SDS011;19359;51.402;6.778;2022-08-01T06:35:45;8.23;;;6.90;;
7783;SDS011;19359;51.402;6.778;2022-08-01T06:38:12;6.47;;;5.88;;
7783;SDS011;19359;51.402;6.778;2022-08-01T06:40:39;7.63;;;6.82;;
7783;SDS011;19359;51.402;6.778;2022-08-01T06:43:06;6.15;;;5.55;;
7783;SDS011;19359;51.402;6.778;2022-08-01T06:45:33;4.88;;;4.45;;
7783;SDS011;19359;51.402;6.778;2022-08-01T06:48:07;7.63;;;5.15;;
7783;SDS011;19359;51.402;6.778;2022-08-01T06:50:41;5.82;;;4.28;;
7783;SDS011;19359;51.402;6.778;2022-08-01T06:53:07;7.70;;;5.00;;
7783;SDS011;19359;51.402;6.778;2022-08-01T06:55:34;4.47;;;4.00;;
7783;SDS011;19359;51.402;6.778;2022-08-01T06:58:01;4.70;;;4.07;;
7783;SDS011;19359;51.402;6.778;2022-08-01T07:00:28;3.03;;;2.78;;
7783;SDS011;19359;51.402;6.778;2022-08-01T07:02:56;7.38;;;3.05;;
7783;SDS011;19359;51.402;6.778;2022-08-01T07:05:25;3.00;;;2.28;;
7783;SDS011;19359;51.402;6.778;2022-08-01T07:07:52;3.30;;;3.10;;
7783;SDS011;19359;51.402;6.778;2022-08-01T07:10:19;2.65;;;2.45;;
7783;SDS011;19359;51.402;6.778;2022-08-01T07:12:46;2.58;;;2.38;;
7783;SDS011;19359;51.402;6.778;2022-08-01T07:15:13;4.03;;;2.55;;
7783;SDS011;19359;51.402;6.778;2022-08-01T07:17:41;2.90;;;2.70;;
7783;SDS011;19359;51.402;6.778;2022-08-01T07:20:09;4.43;;;2.75;;
7783;SDS011;19359;51.402;6.778;2022-08-01T07:22:38;3.42;;;3.22;;
7783;SDS011;19359;51.402;6.778;2022-08-01T07:25:05;3.55;;;3.25;;
7783;SDS011;19359;51.402;6.778;2022-08-01T07:27:33;3.53;;;3.22;;
7783;SDS011;19359;51.402;6.778;2022-08-01T07:30:00;5.25;;;3.05;;
7783;SDS011;19359;51.402;6.778;2022-08-01T07:32:27;2.97;;;2.67;;
7783;SDS011;19359;51.402;6.778;2022-08-01T07:34:54;3.88;;;3.58;;
7783;SDS011;19359;51.402;6.778;2022-08-01T07:37:21;3.20;;;3.00;;
7783;SDS011;19359;51.402;6.778;2022-08-01T07:39:50;2.97;;;2.83;;
7783;SDS011;19359;51.402;6.778;2022-08-01T07:42:17;3.05;;;2.83;;
7783;SDS011;19359;51.402;6.778;2022-08-01T07:44:43;3.42;;;3.20;;
7783;SDS011;19359;51.402;6.778;2022-08-01T07:47:10;3.10;;;3.00;;
7783;SDS011;19359;51.402;6.778;2022-08-01T07:49:37;2.75;;;2.55;;
7783;SDS011;19359;51.402;6.778;2022-08-01T07:52:04;2.90;;;1.80;;
7783;SDS011;19359;51.402;6.778;2022-08-01T07:54:31;4.43;;;1.48;;
7783;SDS011;19359;51.402;6.778;2022-08-01T07:56:59;2.38;;;1.88;;
7783;SDS011;19359;51.402;6.778;2022-08-01T07:59:26;2.25;;;1.60;;
7783;SDS011;19359;51.402;6.778;2022-08-01T08:01:53;4.03;;;3.63;;
7783;SDS011;19359;51.402;6.778;2022-08-01T08:04:20;3.15;;;2.10;;
7783;SDS011;19359;51.402;6.778;2022-08-01T08:06:46;4.13;;;2.10;;
7783;SDS011;19359;51.402;6.778;2022-08-01T08:09:14;2.28;;;2.17;;
7783;SDS011;19359;51.402;6.778;2022-08-01T08:11:41;2.03;;;1.92;;
7783;SDS011;19359;51.402;6.778;2022-08-01T08:14:10;1.67;;;1.58;;
7783;SDS011;19359;51.402;6.778;2022-08-01T08:16:37;6.13;;;2.58;;
7783;SDS011;19359;51.402;6.778;2022-08-01T08:19:04;1.70;;;1.60;;
7783;SDS011;19359;51.402;6.778;2022-08-01T08:21:31;1.90;;;1.60;;
7783;SDS011;19359;51.402;6.778;2022-08-01T08:23:58;2.08;;;1.92;;
7783;SDS011;19359;51.402;6.778;2022-08-01T08:26:43;2.15;;;1.92;;
7783;SDS011;19359;51.402;6.778;2022-08-01T08:29:11;2.50;;;1.25;;
7783;SDS011;19359;51.402;6.778;2022-08-01T08:31:38;1.27;;;1.27;;
7783;SDS011;19359;51.402;6.778;2022-08-01T08:34:05;1.50;;;1.35;;
7783;SDS011;19359;51.402;6.778;2022-08-01T08:36:32;0.90;;;0.90;;
7783;SDS011;19359;51.402;6.778;2022-08-01T08:38:59;3.97;;;1.52;;
7783;SDS011;19359;51.402;6.778;2022-08-01T08:41:26;1.75;;;1.70;;
7783;SDS011;19359;51.402;6.778;2022-08-01T08:43:54;4.32;;;1.40;;
7783;SDS011;19359;51.402;6.778;2022-08-01T08:46:24;1.58;;;1.25;;
7783;SDS011;19359;51.402;6.778;2022-08-01T08:48:52;2.67;;;1.33;;
7783;SDS011;19359;51.402;6.778;2022-08-01T08:51:20;2.30;;;1.50;;
7783;SDS011;19359;51.402;6.778;2022-08-01T08:53:49;4.47;;;1.73;;
7783;SDS011;19359;51.402;6.778;2022-08-01T08:56:20;1.77;;;1.45;;
7783;SDS011;19359;51.402;6.778;2022-08-01T08:58:49;1.00;;;1.00;;
7783;SDS011;19359;51.402;6.778;2022-08-01T09:01:17;0.80;;;0.80;;
7783;SDS011;19359;51.402;6.778;2022-08-01T09:03:45;1.10;;;0.70;;
7783;SDS011;19359;51.402;6.778;2022-08-01T09:06:13;0.85;;;0.85;;
7783;SDS011;19359;51.402;6.778;2022-08-01T09:08:40;1.75;;;1.23;;
7783;SDS011;19359;51.402;6.778;2022-08-01T09:11:07;0.82;;;0.82;;
7783;SDS011;19359;51.402;6.778;2022-08-01T09:13:33;1.50;;;0.82;;
7783;SDS011;19359;51.402;6.778;2022-08-01T09:16:00;1.23;;;1.00;;
7783;SDS011;19359;51.402;6.778;2022-08-01T09:18:28;0.70;;;0.70;;
7783;SDS011;19359;51.402;6.778;2022-08-01T09:21:11;0.73;;;0.73;;
7783;SDS011;19359;51.402;6.778;2022-08-01T09:23:42;0.77;;;0.77;;
7783;SDS011;19359;51.402;6.778;2022-08-01T09:26:10;1.25;;;0.80;;
7783;SDS011;19359;51.402;6.778;2022-08-01T09:28:39;2.05;;;1.05;;
7783;SDS011;19359;51.402;6.778;2022-08-01T09:31:07;1.77;;;1.15;;
7783;SDS011;19359;51.402;6.778;2022-08-01T09:33:47;0.65;;;0.65;;
7783;SDS011;19359;51.402;6.778;2022-08-01T09:36:16;0.60;;;0.60;;
7783;SDS011;19359;51.402;6.778;2022-08-01T09:38:43;1.55;;;1.00;;
7783;SDS011;19359;51.402;6.778;2022-08-01T09:41:10;1.88;;;1.38;;
7783;SDS011;19359;51.402;6.778;2022-08-01T09:43:38;1.25;;;1.25;;
7783;SDS011;19359;51.402;6.778;2022-08-01T09:46:05;2.05;;;1.30;;
7783;SDS011;19359;51.402;6.778;2022-08-01T09:48:36;1.45;;;1.05;;
7783;SDS011;19359;51.402;6.778;2022-08-01T09:51:04;1.10;;;1.10;;
7783;SDS011;19359;51.402;6.778;2022-08-01T09:53:45;1.65;;;1.02;;
7783;SDS011;19359;51.402;6.778;2022-08-01T09:56:13;0.70;;;0.70;;
7783;SDS011;19359;51.402;6.778;2022-08-01T09:58:50;2.20;;;0.80;;
7783;SDS011;19359;51.402;6.778;2022-08-01T10:01:19;0.70;;;0.70;;
7783;SDS011;19359;51.402;6.778;2022-08-01T10:03:47;1.63;;;0.77;;
7783;SDS011;19359;51.402;6.778;2022-08-01T10:06:30;0.70;;;0.70;;
7783;SDS011;19359;51.402;6.778;2022-08-01T10:08:58;0.73;;;0.73;;
7783;SDS011;19359;51.402;6.778;2022-08-01T10:11:25;0.80;;;0.80;;
7783;SDS011;19359;51.402;6.778;2022-08-01T10:13:54;2.05;;;1.20;;
7783;SDS011;19359;51.402;6.778;2022-08-01T10:16:21;1.05;;;0.85;;
7783;SDS011;19359;51.402;6.778;2022-08-01T10:18:50;0.70;;;0.70;;
7783;SDS011;19359;51.402;6.778;2022-08-01T10:21:19;1.27;;;0.70;;
7783;SDS011;19359;51.402;6.778;2022-08-01T10:23:50;1.05;;;1.05;;
7783;SDS011;19359;51.402;6.778;2022-08-01T10:26:21;3.15;;;1.10;;
7783;SDS011;19359;51.402;6.778;2022-08-01T10:28:52;1.17;;;1.17;;
7783;SDS011;19359;51.402;6.778;2022-08-01T10:31:20;1.63;;;0.80;;
7783;SDS011;19359;51.402;6.778;2022-08-01T10:33:47;0.80;;;0.80;;
7783;SDS011;19359;51.402;6.778;2022-08-01T10:36:16;0.90;;;0.90;;
7783;SDS011;19359;51.402;6.778;2022-08-01T10:38:45;1.05;;;0.60;;
7783;SDS011;19359;51.402;6.778;2022-08-01T10:41:12;0.63;;;0.60;;
7783;SDS011;19359;51.402;6.778;2022-08-01T10:43:42;0.52;;;0.52;;
7783;SDS011;19359;51.402;6.778;2022-08-01T10:46:09;0.52;;;0.52;;
7783;SDS011;19359;51.402;6.778;2022-08-01T10:48:39;0.70;;;0.70;;
7783;SDS011;19359;51.402;6.778;2022-08-01T10:51:11;0.57;;;0.57;;
7783;SDS011;19359;51.402;6.778;2022-08-01T10:53:45;1.38;;;0.68;;
7783;SDS011;19359;51.402;6.778;2022-08-01T10:56:13;0.60;;;0.50;;
7783;SDS011;19359;51.402;6.778;2022-08-01T10:58:44;0.75;;;0.50;;
7783;SDS011;19359;51.402;6.778;2022-08-01T11:01:14;0.65;;;0.65;;
7783;SDS011;19359;51.402;6.778;2022-08-01T11:03:56;4.03;;;0.63;;
7783;SDS011;19359;51.402;6.778;2022-08-01T11:06:41;1.40;;;0.73;;
7783;SDS011;19359;51.402;6.778;2022-08-01T11:09:22;0.38;;;0.38;;
7783;SDS011;19359;51.402;6.778;2022-08-01T11:12:02;0.60;;;0.60;;
7783;SDS011;19359;51.402;6.778;2022-08-01T11:15:15;7.00;;;0.77;;
7783;SDS011;19359;51.402;6.778;2022-08-01T11:17:50;2.10;;;0.70;;
7783;SDS011;19359;51.402;6.778;2022-08-01T11:20:18;1.85;;;0.82;;
7783;SDS011;19359;51.402;6.778;2022-08-01T11:31:47;0.93;;;0.57;;
7783;SDS011;19359;51.402;6.778;2022-08-01T11:34:16;2.63;;;0.60;;
7783;SDS011;19359;51.402;6.778;2022-08-01T11:36:43;0.75;;;0.43;;
7783;SDS011;19359;51.402;6.778;2022-08-01T11:39:14;0.50;;;0.50;;
7783;SDS011;19359;51.402;6.778;2022-08-01T11:41:42;1.33;;;0.40;;
7783;SDS011;19359;51.402;6.778;2022-08-01T11:44:11;0.60;;;0.60;;
7783;SDS011;19359;51.402;6.778;2022-08-01T11:46:49;0.50;;;0.50;;
7783;SDS011;19359;51.402;6.778;2022-08-01T11:49:32;0.40;;;0.40;;
7783;SDS011;19359;51.402;6.778;2022-08-01T11:52:11;0.50;;;0.50;;
7783;SDS011;19359;51.402;6.778;2022-08-01T11:54:39;2.83;;;0.40;;
7783;SDS011;19359;51.402;6.778;2022-08-01T11:57:08;0.57;;;0.38;;
7783;SDS011;19359;51.402;6.778;2022-08-01T11:59:37;2.28;;;0.50;;
7783;SDS011;19359;51.402;6.778;2022-08-01T12:02:14;0.50;;;0.50;;
7783;SDS011;19359;51.402;6.778;2022-08-01T12:04:51;0.40;;;0.40;;
7783;SDS011;19359;51.402;6.778;2022-08-01T12:07:20;0.40;;;0.40;;
7783;SDS011;19359;51.402;6.778;2022-08-01T12:09:48;2.28;;;0.55;;
7783;SDS011;19359;51.402;6.778;2022-08-01T12:12:23;1.00;;;0.60;;
7783;SDS011;19359;51.402;6.778;2022-08-01T12:14:53;0.60;;;0.55;;
7783;SDS011;19359;51.402;6.778;2022-08-01T12:17:27;4.03;;;0.57;;
7783;SDS011;19359;51.402;6.778;2022-08-01T12:19:59;2.15;;;0.70;;
7783;SDS011;19359;51.402;6.778;2022-08-01T12:22:26;0.32;;;0.32;;
7783;SDS011;19359;51.402;6.778;2022-08-01T12:24:54;0.60;;;0.60;;
7783;SDS011;19359;51.402;6.778;2022-08-01T12:27:24;1.60;;;0.60;;
7783;SDS011;19359;51.402;6.778;2022-08-01T12:29:53;0.60;;;0.60;;
7783;SDS011;19359;51.402;6.778;2022-08-01T12:32:21;0.35;;;0.35;;
7783;SDS011;19359;51.402;6.778;2022-08-01T12:34:49;0.43;;;0.43;;
7783;SDS011;19359;51.402;6.778;2022-08-01T12:37:18;0.50;;;0.50;;
7783;SDS011;19359;51.402;6.778;2022-08-01T12:39:45;1.85;;;0.40;;
7783;SDS011;19359;51.402;6.778;2022-08-01T12:42:13;0.30;;;0.30;;
7783;SDS011;19359;51.402;6.778;2022-08-01T12:44:41;1.80;;;0.40;;
7783;SDS011;19359;51.402;6.778;2022-08-01T12:47:10;0.47;;;0.45;;
7783;SDS011;19359;51.402;6.778;2022-08-01T12:49:38;0.57;;;0.40;;
7783;SDS011;19359;51.402;6.778;2022-08-01T12:52:08;7.13;;;0.50;;
7783;SDS011;19359;51.402;6.778;2022-08-01T12:57:34;0.50;;;0.50;;
7783;SDS011;19359;51.402;6.778;2022-08-01T13:00:09;0.85;;;0.85;;
7783;SDS011;19359;51.402;6.778;2022-08-01T13:02:39;0.63;;;0.52;;
7783;SDS011;19359;51.402;6.778;2022-08-01T13:05:06;0.60;;;0.60;;
7783;SDS011;19359;51.402;6.778;2022-08-01T13:07:35;0.93;;;0.82;;
7783;SDS011;19359;51.402;6.778;2022-08-01T13:10:03;1.10;;;1.00;;
7783;SDS011;19359;51.402;6.778;2022-08-01T13:12:32;0.70;;;0.70;;
7783;SDS011;19359;51.402;6.778;2022-08-01T13:14:59;1.55;;;0.75;;
7783;SDS011;19359;51.402;6.778;2022-08-01T13:17:39;0.60;;;0.60;;
7783;SDS011;19359;51.402;6.778;2022-08-01T13:20:06;2.72;;;0.70;;
7783;SDS011;19359;51.402;6.778;2022-08-01T13:22:34;0.47;;;0.47;;
7783;SDS011;19359;51.402;6.778;2022-08-01T13:25:12;3.45;;;0.98;;
7783;SDS011;19359;51.402;6.778;2022-08-01T13:27:40;0.75;;;0.60;;
7783;SDS011;19359;51.402;6.778;2022-08-01T13:30:11;1.80;;;0.50;;
7783;SDS011;19359;51.402;6.778;2022-08-01T13:32:39;0.75;;;0.50;;
7783;SDS011;19359;51.402;6.778;2022-08-01T13:35:08;4.03;;;0.70;;
7783;SDS011;19359;51.402;6.778;2022-08-01T13:37:37;1.73;;;0.50;;
7783;SDS011;19359;51.402;6.778;2022-08-01T13:40:05;0.50;;;0.50;;
7783;SDS011;19359;51.402;6.778;2022-08-01T13:42:35;2.25;;;0.60;;
7783;SDS011;19359;51.402;6.778;2022-08-01T13:45:02;0.80;;;0.68;;
7783;SDS011;19359;51.402;6.778;2022-08-01T13:47:32;1.45;;;0.70;;
7783;SDS011;19359;51.402;6.778;2022-08-01T13:49:59;1.67;;;1.40;;
7783;SDS011;19359;51.402;6.778;2022-08-01T13:52:27;1.52;;;1.42;;
7783;SDS011;19359;51.402;6.778;2022-08-01T13:54:54;1.98;;;0.70;;
7783;SDS011;19359;51.402;6.778;2022-08-01T13:57:21;2.15;;;1.10;;
7783;SDS011;19359;51.402;6.778;2022-08-01T13:59:49;2.58;;;0.95;;
7783;SDS011;19359;51.402;6.778;2022-08-01T14:02:16;1.05;;;0.82;;
7783;SDS011;19359;51.402;6.778;2022-08-01T14:04:43;2.80;;;0.90;;
7783;SDS011;19359;51.402;6.778;2022-08-01T14:07:10;2.15;;;0.93;;
7783;SDS011;19359;51.402;6.778;2022-08-01T14:09:37;1.30;;;0.70;;
7783;SDS011;19359;51.402;6.778;2022-08-01T14:12:04;0.70;;;0.70;;
7783;SDS011;19359;51.402;6.778;2022-08-01T14:14:31;7.25;;;0.82;;
7783;SDS011;19359;51.402;6.778;2022-08-01T14:16:59;0.80;;;0.80;;
7783;SDS011;19359;51.402;6.778;2022-08-01T14:19:26;1.63;;;0.60;;
7783;SDS011;19359;51.402;6.778;2022-08-01T14:21:53;1.48;;;0.65;;
7783;SDS011;19359;51.402;6.778;2022-08-01T14:24:21;0.55;;;0.50;;
7783;SDS011;19359;51.402;6.778;2022-08-01T14:26:48;0.80;;;0.80;;
7783;SDS011;19359;51.402;6.778;2022-08-01T14:29:15;1.60;;;0.73;;
7783;SDS011;19359;51.402;6.778;2022-08-01T14:31:42;0.80;;;0.55;;
7783;SDS011;19359;51.402;6.778;2022-08-01T14:34:10;3.22;;;0.57;;
7783;SDS011;19359;51.402;6.778;2022-08-01T14:36:37;3.70;;;0.90;;
7783;SDS011;19359;51.402;6.778;2022-08-01T14:39:04;3.95;;;0.98;;
7783;SDS011;19359;51.402;6.778;2022-08-01T14:41:31;1.58;;;1.02;;
7783;SDS011;19359;51.402;6.778;2022-08-01T14:43:58;0.70;;;0.70;;
7783;SDS011;19359;51.402;6.778;2022-08-01T14:46:26;4.10;;;1.20;;
7783;SDS011;19359;51.402;6.778;2022-08-01T14:48:52;2.22;;;0.60;;
7783;SDS011;19359;51.402;6.778;2022-08-01T14:51:21;1.77;;;0.85;;
7783;SDS011;19359;51.402;6.778;2022-08-01T14:53:48;0.65;;;0.65;;
7783;SDS011;19359;51.402;6.778;2022-08-01T14:56:15;2.53;;;0.77;;
7783;SDS011;19359;51.402;6.778;2022-08-01T14:58:42;2.08;;;0.47;;
7783;SDS011;19359;51.402;6.778;2022-08-01T15:01:09;2.83;;;0.50;;
7783;SDS011;19359;51.402;6.778;2022-08-01T15:03:36;3.08;;;0.77;;
7783;SDS011;19359;51.402;6.778;2022-08-01T15:06:03;1.70;;;0.75;;
7783;SDS011;19359;51.402;6.778;2022-08-01T15:08:32;2.03;;;0.90;;
7783;SDS011;19359;51.402;6.778;2022-08-01T15:10:59;3.40;;;0.70;;
7783;SDS011;19359;51.402;6.778;2022-08-01T15:13:27;5.07;;;0.75;;
7783;SDS011;19359;51.402;6.778;2022-08-01T15:15:53;2.60;;;0.82;;
7783;SDS011;19359;51.402;6.778;2022-08-01T15:18:20;0.60;;;0.60;;